This is the latest recevied weather packets stored in our database for station/object DG3RAP-11. If no packets are shown the sender has not sent any weather packets the latest 10 day(s).
| Time | Temp. | Humidity | Pressure | Rain* | Wind** | Luminosity | Snow |
|---|---|---|---|---|---|---|---|
| 1777704303 | 13.89° C | 54% | 1023.6 hPa | 0 mm | - | - | - |
| 1777703763 | 13.89° C | 54% | 1023.4 hPa | 0 mm | - | - | - |
| 1777703223 | 13.33° C | 57% | 1023.2 hPa | 0 mm | - | - | - |
| 1777702683 | 12.78° C | 56% | 1023.4 hPa | 0 mm | - | - | - |
| 1777702143 | 13.33° C | 55% | 1023.5 hPa | 0 mm | - | - | - |
| 1777701603 | 13.33° C | 57% | 1023.5 hPa | 0 mm | - | - | - |
| 1777701243 | 12.22° C | 58% | 1023.5 hPa | 0 mm | - | - | - |
| 1777700704 | 10.56° C | 69% | 1023.6 hPa | 0 mm | - | - | - |
| 1777700163 | 8.33° C | 75% | 1023.6 hPa | 0 mm | - | - | - |
| 1777699623 | 8.89° C | 71% | 1023.6 hPa | 0 mm | - | - | - |
| 1777699083 | 8.89° C | 71% | 1023.3 hPa | 0 mm | - | - | - |
| 1777698543 | 8.33° C | 73% | 1023.4 hPa | 0 mm | - | - | - |
| 1777698003 | 7.22° C | 76% | 1023.4 hPa | 0 mm | - | - | - |
| 1777697643 | 7.78° C | 73% | 1023.4 hPa | 0 mm | - | - | - |
| 1777697103 | 7.22° C | 76% | 1023.3 hPa | 0 mm | - | - | - |
| 1777696563 | 6.67° C | 77% | 1023.1 hPa | 0 mm | - | - | - |
| 1777696023 | 5.56° C | 80% | 1023.3 hPa | 0 mm | - | - | - |
| 1777695483 | 6.11° C | 79% | 1023.5 hPa | 0 mm | - | - | - |
| 1777694943 | 6.67° C | 78% | 1023.2 hPa | 0 mm | - | - | - |
| 1777694403 | 6.67° C | 76% | 1023.3 hPa | 0 mm | - | - | - |
| 1777694043 | 7.78° C | 76% | 1023.2 hPa | 0 mm | - | - | - |
| 1777693503 | 7.22° C | 76% | 1023.2 hPa | 0 mm | - | - | - |
| 1777692963 | 8.33° C | 72% | 1023.3 hPa | 0 mm | - | - | - |
| 1777692423 | 8.33° C | 71% | 1023.4 hPa | 0 mm | - | - | - |
| 1777691883 | 8.33° C | 72% | 1023.6 hPa | 0 mm | - | - | - |
* Rain latest hour (hover to see other rain measurements)
** Current wind speed in m/s (hover to see current wind gust speed)